createdAt,value
2018-05-15T00:00:55.612Z,29.27
2018-05-15T00:06:57.292Z,29.87
2018-05-15T00:12:58.972Z,28.90
2018-05-15T00:19:00.681Z,30.37
2018-05-15T00:25:03.078Z,29.67
2018-05-15T00:31:04.934Z,28.77
2018-05-15T00:37:07.335Z,30.50
2018-05-15T00:43:08.980Z,29.33
2018-05-15T00:49:10.632Z,29.20
2018-05-15T00:55:30.781Z,29.67
2018-05-15T01:01:32.482Z,30.37
2018-05-15T01:07:34.145Z,30.03
2018-05-15T01:13:35.853Z,30.93
2018-05-15T01:19:37.530Z,30.17
2018-05-15T01:25:39.197Z,31.80
2018-05-15T01:31:40.828Z,31.23
2018-05-15T01:37:42.478Z,30.50
2018-05-15T01:43:44.126Z,29.80
2018-05-15T01:49:46.518Z,31.53
2018-05-15T01:55:48.161Z,30.03
2018-05-15T02:01:50.626Z,30.87
2018-05-15T02:07:52.366Z,29.33
2018-05-15T02:13:54.074Z,29.77
2018-05-15T02:19:55.744Z,29.13
2018-05-15T02:25:57.426Z,30.37
2018-05-15T02:31:59.908Z,31.07
2018-05-15T02:38:01.599Z,29.50
2018-05-15T02:44:03.243Z,30.50
2018-05-15T02:50:05.625Z,29.37
2018-05-15T02:56:07.333Z,29.83
2018-05-15T03:02:09.038Z,29.37
2018-05-15T03:08:10.695Z,28.23
2018-05-15T03:14:13.292Z,28.77
2018-05-15T03:20:15.345Z,28.17
2018-05-15T03:26:18.192Z,28.67
2018-05-15T03:32:20.135Z,29.17
2018-05-15T03:38:21.793Z,28.90
2018-05-15T03:44:24.303Z,28.33
2018-05-15T03:50:26.203Z,27.50
2018-05-15T03:56:28.132Z,28.27
2018-05-15T04:02:48.249Z,27.30
2018-05-15T04:08:49.899Z,26.87
2018-05-15T04:14:51.912Z,27.70
2018-05-15T04:20:53.715Z,27.30
2018-05-15T04:26:55.640Z,27.47
2018-05-15T04:32:57.318Z,26.93
2018-05-15T04:38:58.980Z,25.93
2018-05-15T04:45:00.643Z,25.63
2018-05-15T04:51:02.416Z,26.03
2018-05-15T04:57:05.551Z,27.03
2018-05-15T05:03:07.195Z,25.47
2018-05-15T05:09:08.908Z,24.87
2018-05-15T05:15:10.585Z,26.30
2018-05-15T05:21:12.307Z,25.30
2018-05-15T05:27:14.801Z,25.80
2018-05-15T05:33:17.245Z,23.97
2018-05-15T05:39:19.760Z,23.67
2018-05-15T05:45:21.576Z,23.27
2018-05-15T05:51:23.380Z,23.03
2018-05-15T05:57:25.036Z,23.70
2018-05-15T06:03:26.980Z,22.57
2018-05-15T06:09:28.699Z,23.60
2018-05-15T06:15:30.583Z,23.40
2018-05-15T06:21:32.348Z,22.90
2018-05-15T06:27:34.058Z,23.23
2018-05-15T06:33:35.689Z,22.60
2018-05-15T06:39:38.081Z,24.03
2018-05-15T06:45:39.798Z,19.80
2018-05-15T06:51:41.467Z,17.07
2018-05-15T06:57:43.434Z,15.10
2018-05-15T07:03:45.857Z,49.77
2018-05-15T07:09:48.358Z,19.60
2018-05-15T07:15:50.143Z,12.13
2018-05-15T07:21:51.765Z,9.63
2018-05-15T07:27:53.575Z,8.87
2018-05-15T07:33:55.229Z,8.57
2018-05-15T07:39:59.623Z,7.70
2018-05-15T07:46:01.305Z,8.60
2018-05-15T07:52:03.698Z,9.37
2018-05-15T07:58:05.329Z,7.87
2018-05-15T08:04:07.370Z,9.10
2018-05-15T08:10:09.854Z,8.40
2018-05-15T08:16:11.788Z,8.17
2018-05-15T08:22:13.827Z,8.23
2018-05-15T08:28:15.543Z,10.03
2018-05-15T08:34:17.637Z,9.47
2018-05-15T08:40:20.159Z,9.70
2018-05-15T08:46:21.950Z,8.20
2018-05-15T08:52:23.870Z,8.37
2018-05-15T08:58:25.696Z,8.30
2018-05-15T09:04:27.468Z,8.47
2018-05-15T09:10:29.610Z,8.67
2018-05-15T09:16:32.147Z,8.30
2018-05-15T09:22:34.651Z,8.93
2018-05-15T09:28:36.412Z,9.10
2018-05-15T09:34:38.358Z,8.27
2018-05-15T09:40:40.091Z,9.00
2018-05-15T09:46:41.813Z,9.30
2018-05-15T09:52:43.531Z,8.93
2018-05-15T09:58:46.262Z,9.13
2018-05-15T10:04:47.984Z,8.97
2018-05-15T10:10:50.460Z,9.27
2018-05-15T10:16:52.131Z,8.73
2018-05-15T10:22:54.689Z,9.00
2018-05-15T10:28:56.342Z,9.40
2018-05-15T10:34:57.987Z,8.73
2018-05-15T10:41:00.378Z,8.93
2018-05-15T10:47:02.051Z,9.63
2018-05-15T10:53:04.530Z,9.73
2018-05-15T10:59:06.278Z,9.63
2018-05-15T11:05:07.940Z,9.27
2018-05-15T11:11:10.515Z,9.50
2018-05-15T11:17:12.187Z,9.30
2018-05-15T11:23:32.420Z,9.23
2018-05-15T11:29:35.128Z,9.00
2018-05-15T11:35:37.887Z,10.03
2018-05-15T11:41:39.987Z,9.40
2018-05-15T11:47:41.697Z,9.20
2018-05-15T11:53:44.017Z,9.43
